This is the latest recevied weather packets stored in our database for station/object 5B4APJ-13. If no packets are shown the sender has not sent any weather packets the latest 10 day(s).
| Time | Temp. | Humidity | Pressure | Rain* | Wind** | Luminosity | Snow |
|---|---|---|---|---|---|---|---|
| 1777853826 | 9.44° C | 86% | 1008 hPa | 1.78 mm | 1.79 m/s, 239° | 0 W/m² | - |
| 1777853527 | 10° C | 83% | 1008.3 hPa | 1.52 mm | 4.47 m/s, 246° | 0 W/m² | - |
| 1777853226 | 11.11° C | 79% | 1008.2 hPa | 0.51 mm | 5.36 m/s, 237° | 0 W/m² | - |
| 1777852926 | 11.67° C | 72% | 1008.2 hPa | 0 mm | 4.47 m/s, 208° | 0 W/m² | - |
| 1777852627 | 11.11° C | 72% | 1007.9 hPa | 0.25 mm | 7.6 m/s, 233° | 0 W/m² | - |
| 1777852326 | 11.11° C | 72% | 1007.8 hPa | 0.25 mm | 3.58 m/s, 258° | 0 W/m² | - |
| 1777852026 | 11.11° C | 72% | 1007.7 hPa | 0.25 mm | 3.58 m/s, 226° | 0 W/m² | - |
| 1777851726 | 11.11° C | 73% | 1007.8 hPa | 0.25 mm | 2.68 m/s, 175° | 0 W/m² | - |
| 1777851426 | 11.11° C | 73% | 1007.7 hPa | 0.76 mm | 2.24 m/s, 212° | 0 W/m² | - |
| 1777851126 | 11.11° C | 73% | 1007.6 hPa | 0.76 mm | 5.36 m/s, 230° | 0 W/m² | - |
| 1777850826 | 11.11° C | 72% | 1007.8 hPa | 0.76 mm | 5.36 m/s, 215° | 0 W/m² | - |
| 1777850526 | 10.56° C | 75% | 1008.1 hPa | 0.76 mm | 4.02 m/s, 207° | 0 W/m² | - |
| 1777850226 | 10.56° C | 77% | 1008.4 hPa | 0.76 mm | 3.58 m/s, 228° | 0 W/m² | - |
| 1777849926 | 10.56° C | 76% | 1008.6 hPa | 0.76 mm | 4.02 m/s, 219° | 0 W/m² | - |
| 1777849626 | 10.56° C | 75% | 1008.5 hPa | 0.76 mm | 6.26 m/s, 231° | 0 W/m² | - |
| 1777849326 | 10.56° C | 79% | 1008.8 hPa | 0.51 mm | 2.24 m/s, 206° | 0 W/m² | - |
| 1777849026 | 10.56° C | 77% | 1008.3 hPa | 0.51 mm | 3.13 m/s, 250° | 0 W/m² | - |
| 1777848726 | 10.56° C | 77% | 1008.5 hPa | 0.51 mm | 2.68 m/s, 229° | 0 W/m² | - |
| 1777848426 | 10.56° C | 77% | 1008.7 hPa | 0.51 mm | 1.79 m/s, 284° | 0 W/m² | - |
| 1777848126 | 11.67° C | 72% | 1009 hPa | 0.25 mm | 2.68 m/s, 238° | 0 W/m² | - |
| 1777847826 | 11.67° C | 67% | 1008.9 hPa | 0 mm | 1.79 m/s, 223° | 0 W/m² | - |
| 1777847526 | 11.67° C | 66% | 1008.6 hPa | 0 mm | 5.36 m/s, 214° | 0 W/m² | - |
| 1777847226 | 11.67° C | 66% | 1008.4 hPa | 0 mm | 2.24 m/s, 242° | 0 W/m² | - |
| 1777846926 | 11.67° C | 67% | 1008.7 hPa | 0 mm | 4.92 m/s, 246° | 0 W/m² | - |
| 1777846626 | 11.67° C | 67% | 1008.5 hPa | 0 mm | 4.92 m/s, 248° | 0 W/m² | - |
* Rain latest hour (hover to see other rain measurements)
** Current wind speed in m/s (hover to see current wind gust speed)